Monday, August 20, 2018, 1:15 AM EDT
Back to Local

KPSF, Pittsfield Municipal Airport

Location: Pittsfield, MA, United States Lat: 42.433
Local Time: 1:15 AM EDT ( 5:15 GMT) Lon: -73.283
Time Zone: US/Eastern Elev: 1194 ft

Show me the last for .
Show Decoded

2018-08-20 00:54 METAR KPSF 200454Z AUTO 08003KT 10SM CLR 16/13 A3015 RMK AO2 SLP188 T01610128
                 402440150 =
2018-08-19 23:54 METAR KPSF 200354Z AUTO 00000KT 10SM CLR 17/13 A3015 RMK AO2 SLP187 T01670128 =
2018-08-19 22:54 METAR KPSF 200254Z AUTO 07004KT 10SM CLR 17/13 A3014 RMK AO2 SLP184 T01670128
                 52013 =
2018-08-19 21:54 METAR KPSF 200154Z AUTO 09004KT 10SM CLR 18/13 A3013 RMK AO2 SLP179 T01780128 =
2018-08-19 20:54 METAR KPSF 200054Z AUTO 00000KT 10SM CLR 18/14 A3012 RMK AO2 SLP176 T01830139 =
2018-08-19 19:54 METAR KPSF 192354Z AUTO 09003KT 10SM CLR 20/12 A3010 RMK AO2 SLP171 T02000117
                 10244 20200 53015 =
2018-08-19 18:54 METAR KPSF 192254Z AUTO 10006KT 10SM CLR 21/12 A3008 RMK AO2 SLP165 T02060122 =
2018-08-19 17:54 METAR KPSF 192154Z AUTO 10005KT 10SM CLR 22/12 A3007 RMK AO2 SLP159 T02170122 =
2018-08-19 16:54 METAR KPSF 192054Z AUTO 06006KT 10SM CLR 23/13 A3006 RMK AO2 SLP154 T02280128
                 53003 =
2018-08-19 15:54 METAR KPSF 191954Z AUTO 11006KT 10SM CLR 23/12 A3005 RMK AO2 SLP152 T02280122 =
2018-08-19 14:54 METAR KPSF 191854Z AUTO 11008KT 070V130 10SM CLR 23/12 A3005 RMK AO2 SLP150
                 T02280117 =
2018-08-19 13:54 METAR KPSF 191754Z AUTO 06007G17KT 040V100 10SM CLR 23/12 A3005 RMK AO2 SLP151
                 T02330117 10239 20183 53000 =
2018-08-19 12:54 METAR KPSF 191654Z AUTO 07009G19KT 040V100 10SM CLR 23/12 A3004 RMK AO2 SLP149
                 T02280117 =
2018-08-19 11:54 METAR KPSF 191554Z AUTO 07011G18KT 10SM CLR 22/12 A3005 RMK AO2 SLP150 T02220117
                 =
2018-08-19 10:54 METAR KPSF 191454Z AUTO 07008KT 040V110 10SM CLR 22/13 A3005 RMK AO2 SLP151
                 T02170128 51010 =
2018-08-19 09:54 METAR KPSF 191354Z AUTO 06005G17KT 10SM CLR 21/13 A3004 RMK AO2 SLP148 T02110128
                 =
2018-08-19 08:54 METAR KPSF 191254Z AUTO 05008KT 10SM FEW065 20/13 A3003 RMK AO2 SLP147 T02000133
                 =
2018-08-19 07:54 METAR KPSF 191154Z AUTO 04006KT 10SM SCT021 OVC060 18/14 A3001 RMK AO2 SLP142
                 70009 T01830144 10189 20178 53016 =
2018-08-19 07:41 METAR KPSF 191141Z AUTO 05007KT 10SM SCT022 OVC060 18/14 A3001 RMK AO2 T01830144
                 =
2018-08-19 07:32 METAR KPSF 191132Z AUTO 06007KT 10SM BKN022 OVC060 18/14 A3001 RMK AO2 T01830144
                 =
2018-08-19 06:54 METAR KPSF 191054Z AUTO 06007KT 10SM FEW022 OVC060 18/14 A3000 RMK AO2 SLP135
                 T01830144 =
2018-08-19 05:54 METAR KPSF 190954Z AUTO 07005KT 10SM OVC065 18/14 A2998 RMK AO2 SLP128 T01780139
                 =
2018-08-19 04:54 METAR KPSF 190854Z AUTO 06008KT 10SM OVC060 18/13 A2997 RMK AO2 SLP123 T01830133
                 51009 =
2018-08-19 04:18 METAR KPSF 190818Z AUTO 07009KT 10SM SCT024 OVC060 18/13 A2996 RMK AO2 T01830133
                 =
2018-08-19 03:54 METAR KPSF 190754Z AUTO 05007KT 10SM BKN024 OVC046 18/13 A2996 RMK AO2 SLP121
                 T01830133 =
2018-08-19 02:54 METAR KPSF 190654Z AUTO 06007KT 10SM BKN021 OVC035 19/14 A2995 RMK AO2 SLP118
                 T01890139 =
2018-08-19 02:47 METAR KPSF 190647Z AUTO 07006KT 10SM BKN021 OVC035 19/14 A2994 RMK AO2 T01890139
                 =
2018-08-19 02:10 METAR KPSF 190610Z AUTO 06009KT 10SM FEW020 SCT028 OVC035 19/14 A2994 RMK AO2
                 T01890144 =
2018-08-19 01:54 METAR KPSF 190554Z AUTO 07006KT 10SM FEW013 BKN026 OVC034 19/15 A2994 RMK AO2
                 RAE08 SLP115 P0000 60000 T01890150 10189 20183 53006 =

Support USWX by starting your Amazon purchase here.